Time;durP1;ratioP1;P1;durP2;ratioP2;P2;SDS_P1;SDS_P2;PMS_P1;PMS_P2;Temp;Humidity;BMP_temperature;BMP_pressure;BME280_temperature;BME280_humidity;BME280_pressure;Samples;Min_cycle;Max_cycle;Signal;HPM_P1;HPM_P2
2024/03/30 00:00:53;;;;;;;2.28;1.58;;;;;;;-146.27;76.82;44370.38;5086921;28;20096;-75
2024/03/30 00:03:19;;;;;;;2.13;1.55;;;;;;;-146.27;76.58;44366.38;5089050;28;20059;-71
2024/03/30 00:05:45;;;;;;;3.50;1.58;;;;;;;-146.27;76.22;44410.16;5080456;28;20451;-71
2024/03/30 00:08:10;;;;;;;3.60;1.23;;;;;;;-146.27;76.53;44408.16;5105085;28;20056;-72
2024/03/30 00:10:37;;;;;;;1.70;1.30;;;;;;;-146.27;76.84;44384.28;5088828;28;20484;-72
2024/03/30 00:13:07;;;;;;;2.47;1.63;;;;;;;-146.27;76.73;44402.19;5087160;28;20044;-71
2024/03/30 00:15:32;;;;;;;2.10;1.25;;;;;;;-146.27;76.41;44398.22;5074527;28;20043;-71
2024/03/30 00:18:01;;;;;;;4.75;1.63;;;;;;;-146.27;76.09;44402.19;5083492;28;20016;-73
2024/03/30 00:20:27;;;;;;;3.28;1.25;;;;;;;-146.27;75.56;44465.88;5090888;28;20490;-72
2024/03/30 00:22:53;;;;;;;1.55;1.25;;;;;;;-146.27;75.36;44527.56;5081608;28;20026;-72
2024/03/30 00:25:19;;;;;;;1.70;0.90;;;;;;;-146.27;74.41;44529.53;5089678;28;20506;-72
2024/03/30 00:27:45;;;;;;;2.97;1.25;;;;;;;-146.27;74.14;44545.47;5094697;28;20063;-72
2024/03/30 00:30:10;;;;;;;4.00;0.93;;;;;;;-146.27;74.01;44537.50;5074526;28;20067;-73
2024/03/30 00:32:36;;;;;;;1.38;0.98;;;;;;;-146.27;73.75;44573.31;5090482;28;20030;-72
2024/03/30 00:35:03;;;;;;;1.42;0.90;;;;;;;-146.27;73.64;44571.34;5077579;28;20036;-72
2024/03/30 00:37:28;;;;;;;2.42;1.10;;;;;;;-146.27;73.34;44577.31;5081648;28;20023;-73
2024/03/30 00:39:54;;;;;;;2.22;1.15;;;;;;;-146.27;73.25;44575.31;5091170;28;20028;-72
2024/03/30 00:42:19;;;;;;;1.35;1.00;;;;;;;-146.27;73.29;44623.06;5092356;28;20471;-72
2024/03/30 00:44:45;;;;;;;1.65;1.25;;;;;;;-146.27;73.23;44607.16;5098689;28;20398;-72
2024/03/30 00:47:10;;;;;;;1.65;1.10;;;;;;;-146.27;73.28;44640.97;5087589;28;20028;-72
2024/03/30 00:49:35;;;;;;;0.98;0.85;;;;;;;-146.27;73.04;44601.19;5086319;28;20486;-71
2024/03/30 00:52:01;;;;;;;3.55;1.15;;;;;;;-146.27;72.88;44595.22;5086142;28;20086;-72
2024/03/30 00:54:26;;;;;;;3.20;1.05;;;;;;;-146.27;72.80;44609.13;5085326;28;20020;-72
2024/03/30 00:56:52;;;;;;;1.77;1.27;;;;;;;-146.27;73.15;44593.22;5084832;28;20468;-72
2024/03/30 00:59:17;;;;;;;3.28;1.20;;;;;;;-146.27;73.16;44633.00;5085118;28;20488;-73
2024/03/30 01:01:43;;;;;;;1.17;1.00;;;;;;;-146.27;73.56;44619.09;5090034;28;20544;-71
2024/03/30 01:04:08;;;;;;;1.42;1.00;;;;;;;-146.27;73.25;44625.06;5085921;28;20028;-73
2024/03/30 01:06:33;;;;;;;1.23;1.00;;;;;;;-146.27;73.34;44605.16;5079639;28;20020;-73
2024/03/30 01:08:59;;;;;;;1.60;1.17;;;;;;;-146.27;73.61;44609.13;5085169;28;20135;-73
2024/03/30 01:11:25;;;;;;;5.45;1.30;;;;;;;-146.27;74.00;44619.09;5091047;28;20066;-74
2024/03/30 01:13:51;;;;;;;1.15;0.90;;;;;;;-146.27;74.23;44623.06;5082732;28;20033;-75
2024/03/30 01:16:17;;;;;;;1.48;1.00;;;;;;;-146.27;74.43;44629.03;5078777;28;20031;-75
2024/03/30 01:18:43;;;;;;;1.85;1.02;;;;;;;-146.27;74.81;44613.13;5070542;28;20031;-75
2024/03/30 01:21:09;;;;;;;1.90;1.30;;;;;;;-146.27;74.84;44640.97;5078709;28;20032;-75
2024/03/30 01:23:36;;;;;;;1.27;1.08;;;;;;;-146.27;75.05;44633.00;5091671;28;20107;-76
2024/03/30 01:26:02;;;;;;;2.05;1.40;;;;;;;-146.27;75.37;44601.19;5102828;28;20089;-76
2024/03/30 01:28:28;;;;;;;2.85;1.42;;;;;;;-146.27;75.75;44593.22;5092952;28;20032;-75
2024/03/30 01:30:54;;;;;;;1.90;1.40;;;;;;;-146.27;75.52;44646.94;5089600;28;20094;-75
2024/03/30 01:33:19;;;;;;;1.95;1.23;;;;;;;-146.27;75.92;44589.25;5103353;28;20032;-75
2024/03/30 01:35:45;;;;;;;1.45;1.20;;;;;;;-146.27;76.16;44589.25;5091800;28;20327;-75
2024/03/30 01:38:12;;;;;;;4.32;1.10;;;;;;;-146.27;76.06;44591.22;5097885;28;20055;-75
2024/03/30 01:40:38;;;;;;;2.60;1.30;;;;;;;-146.27;75.55;44617.09;5083687;28;20024;-75
2024/03/30 01:43:04;;;;;;;2.13;1.27;;;;;;;-146.27;75.56;44613.13;5084027;28;20073;-75
2024/03/30 01:45:34;;;;;;;2.15;1.35;;;;;;;-146.27;75.89;44601.19;5096947;28;20475;-75
2024/03/30 01:48:05;;;;;;;1.38;1.23;;;;;;;-146.27;75.77;44601.19;5092705;28;20110;-75
2024/03/30 01:50:31;;;;;;;2.72;1.40;;;;;;;-146.27;75.85;44656.91;5091638;28;20051;-75
2024/03/30 01:52:59;;;;;;;3.10;1.42;;;;;;;-146.27;76.04;44595.22;5088575;28;20120;-75
2024/03/30 01:55:25;;;;;;;2.33;1.30;;;;;;;-146.27;77.12;44545.47;5080818;28;20043;-74
2024/03/30 01:57:51;;;;;;;1.60;1.10;;;;;;;-146.27;76.70;44581.28;5088621;28;20020;-76
2024/03/30 02:00:17;;;;;;;1.73;1.50;;;;;;;-146.27;76.33;44587.25;5078794;28;20056;-75
2024/03/30 02:02:44;;;;;;;3.53;1.50;;;;;;;-146.27;76.04;44609.13;5079765;28;20059;-75
2024/03/30 02:05:10;;;;;;;4.20;1.60;;;;;;;-146.27;76.17;44601.19;5077070;28;20119;-75
2024/03/30 02:07:35;;;;;;;1.67;1.27;;;;;;;-146.27;75.88;44605.16;5075567;28;20174;-75
2024/03/30 02:10:03;;;;;;;2.92;1.08;;;;;;;-146.27;75.33;44605.16;5081928;28;20097;-76
2024/03/30 02:12:30;;;;;;;1.27;0.93;;;;;;;-146.27;74.93;44638.97;5085411;28;20047;-76
2024/03/30 02:14:55;;;;;;;2.30;1.40;;;;;;;-146.27;74.89;44664.84;5085755;28;20024;-75
2024/03/30 02:17:21;;;;;;;2.33;1.10;;;;;;;-146.27;74.83;44637.00;5087607;28;20035;-74
2024/03/30 02:19:46;;;;;;;2.47;1.20;;;;;;;-146.27;74.83;44650.94;5082963;28;20028;-76
2024/03/30 02:22:17;;;;;;;1.35;0.90;;;;;;;-146.27;74.74;44629.03;5080923;28;20080;-74
2024/03/30 02:24:42;;;;;;;2.30;1.10;;;;;;;-146.27;74.99;44660.88;5087568;28;20024;-73
2024/03/30 02:27:08;;;;;;;1.45;1.08;;;;;;;-146.27;74.82;44644.94;5083971;28;20396;-72
2024/03/30 02:29:34;;;;;;;2.28;1.00;;;;;;;-146.27;75.16;44660.88;5084938;28;20051;-72
2024/03/30 02:32:00;;;;;;;2.53;1.25;;;;;;;-146.27;74.97;44656.91;5087001;28;20081;-72
2024/03/30 02:34:25;;;;;;;1.58;1.08;;;;;;;-146.27;74.81;44656.91;5076002;28;20044;-72
2024/03/30 02:36:52;;;;;;;1.67;1.15;;;;;;;-146.27;74.93;44708.63;5084335;28;20024;-72
2024/03/30 02:39:17;;;;;;;3.08;1.13;;;;;;;-146.27;74.79;44708.63;5083881;28;20028;-72
2024/03/30 02:41:42;;;;;;;1.52;1.25;;;;;;;-146.27;74.84;44718.56;5080885;28;20039;-72
2024/03/30 02:44:08;;;;;;;2.55;1.10;;;;;;;-146.27;75.07;44668.84;5091791;28;20024;-72
2024/03/30 02:46:33;;;;;;;2.33;1.40;;;;;;;-146.27;74.79;44716.59;5088595;28;20036;-72
2024/03/30 02:48:58;;;;;;;3.58;1.33;;;;;;;-146.27;74.93;44688.72;5079777;28;20084;-73
2024/03/30 02:51:24;;;;;;;2.58;1.33;;;;;;;-146.27;74.74;44726.53;5089841;28;20446;-73
2024/03/30 02:53:49;;;;;;;1.95;1.13;;;;;;;-146.27;74.71;44736.50;5077775;28;20485;-72
2024/03/30 02:56:14;;;;;;;2.00;1.10;;;;;;;-146.27;74.48;44692.72;5077696;28;20126;-72
2024/03/30 02:58:40;;;;;;;2.75;1.00;;;;;;;-146.27;74.35;44680.78;5080101;28;20535;-73
2024/03/30 03:01:05;;;;;;;4.03;1.00;;;;;;;-146.27;74.36;44694.69;5091116;28;20504;-71
2024/03/30 03:03:31;;;;;;;1.58;1.05;;;;;;;-146.27;74.47;44680.78;5088471;28;20480;-72
2024/03/30 03:05:56;;;;;;;2.50;1.20;;;;;;;-146.27;74.34;44704.66;5090779;28;20224;-72
2024/03/30 03:08:24;;;;;;;3.15;1.27;;;;;;;-146.27;74.49;44714.59;5099511;28;20036;-71
2024/03/30 03:10:50;;;;;;;1.27;1.05;;;;;;;-146.27;74.49;44698.69;5083876;28;20495;-72
2024/03/30 03:13:17;;;;;;;1.90;1.27;;;;;;;-146.27;74.62;44708.63;5080706;28;20033;-70
2024/03/30 03:15:43;;;;;;;3.72;1.25;;;;;;;-146.27;74.69;44708.63;5088761;28;20038;-72
2024/03/30 03:18:08;;;;;;;0.95;0.82;;;;;;;-146.27;75.10;44684.75;5079104;28;20115;-72
2024/03/30 03:20:34;;;;;;;1.40;1.05;;;;;;;-146.27;75.26;44708.63;5090095;28;20131;-73
2024/03/30 03:23:00;;;;;;;2.65;1.00;;;;;;;-146.27;75.50;44712.59;5072233;28;20143;-73
2024/03/30 03:25:25;;;;;;;2.50;1.88;;;;;;;-146.27;75.88;44720.56;5084417;28;21245;-73
2024/03/30 03:27:50;;;;;;;1.55;0.80;;;;;;;-146.27;76.03;44720.56;5075293;28;20155;-72
2024/03/30 03:30:16;;;;;;;1.10;0.98;;;;;;;-146.27;76.37;44706.63;5089477;28;20404;-73
2024/03/30 03:32:41;;;;;;;2.47;0.80;;;;;;;-146.27;76.46;44692.72;5091379;28;20058;-73
2024/03/30 03:35:07;;;;;;;0.98;0.90;;;;;;;-146.27;77.25;44696.69;5086901;28;20437;-74
2024/03/30 03:37:32;;;;;;;2.55;0.80;;;;;;;-146.27;77.29;44692.72;5087248;28;20168;-71
2024/03/30 03:39:58;;;;;;;2.78;1.92;;;;;;;-146.27;77.97;44658.88;5091118;28;20051;-72
2024/03/30 03:42:24;;;;;;;3.90;1.20;;;;;;;-146.27;77.87;44676.78;5090809;28;20028;-70
2024/03/30 03:44:49;;;;;;;2.45;1.05;;;;;;;-146.27;77.90;44660.88;5083389;28;20028;-71
2024/03/30 03:47:14;;;;;;;1.55;1.20;;;;;;;-146.27;78.16;44654.91;5070601;28;20392;-72
2024/03/30 03:49:40;;;;;;;1.40;1.17;;;;;;;-146.27;78.68;44633.00;5074615;28;20025;-71
2024/03/30 03:52:05;;;;;;;2.65;1.15;;;;;;;-146.27;78.84;44585.25;5081588;28;20032;-72
2024/03/30 03:54:31;;;;;;;1.30;1.20;;;;;;;-146.27;78.12;44633.00;5088264;28;20035;-72
2024/03/30 03:56:56;;;;;;;2.33;1.50;;;;;;;-146.27;78.57;44637.00;5073245;28;20016;-73
2024/03/30 03:59:22;;;;;;;3.22;1.63;;;;;;;-146.27;78.62;44635.00;5066435;28;20020;-71
2024/03/30 04:01:48;;;;;;;1.35;1.20;;;;;;;-146.27;78.90;44621.06;5085701;28;20023;-72
2024/03/30 04:04:15;;;;;;;2.92;1.40;;;;;;;-146.27;79.04;44617.09;5088823;28;20039;-72
2024/03/30 04:06:40;;;;;;;2.20;1.58;;;;;;;-146.27;79.06;44613.13;5078604;28;20473;-74
2024/03/30 04:09:06;;;;;;;2.35;1.27;;;;;;;-146.27;79.46;44605.16;5074816;28;20024;-71
2024/03/30 04:11:32;;;;;;;1.90;1.35;;;;;;;-146.27;79.74;44577.31;5082385;28;20085;-72
2024/03/30 04:13:58;;;;;;;1.92;1.33;;;;;;;-146.27;80.04;44541.47;5098903;28;20562;-73
2024/03/30 04:16:24;;;;;;;3.58;1.52;;;;;;;-146.27;80.48;44565.38;5080894;28;20043;-73
2024/03/30 04:18:50;;;;;;;1.77;1.10;;;;;;;-146.27;80.59;44545.47;5094770;28;20090;-71
2024/03/30 04:21:16;;;;;;;1.45;1.23;;;;;;;-146.27;80.29;44535.50;5082566;28;20035;-71
2024/03/30 04:23:42;;;;;;;1.98;1.40;;;;;;;-146.27;79.93;44525.56;5083020;28;20483;-72
2024/03/30 04:26:15;;;;;;;1.95;1.38;;;;;;;-146.27;80.24;44521.59;5073268;28;20052;-72
2024/03/30 04:28:41;;;;;;;2.27;1.50;;;;;;;-146.27;80.51;44531.53;5080100;28;20028;-71
2024/03/30 04:31:06;;;;;;;3.38;1.48;;;;;;;-146.27;80.15;44531.53;5066582;28;20093;-71
2024/03/30 04:33:33;;;;;;;1.60;1.45;;;;;;;-146.27;80.65;44517.59;5077046;28;20020;-72
2024/03/30 04:36:01;;;;;;;2.40;1.35;;;;;;;-146.27;80.83;44467.88;5070349;28;20400;-72
2024/03/30 04:38:27;;;;;;;4.95;1.50;;;;;;;-146.27;81.22;44440.00;5080315;28;20039;-72
2024/03/30 04:41:12;;;;;;;2.70;1.80;;;;;;;-146.27;81.53;44430.06;5086859;28;20028;-71
2024/03/30 04:43:37;;;;;;;4.45;1.90;;;;;;;-146.27;81.20;44449.97;5079203;28;20104;-74
2024/03/30 04:46:04;;;;;;;2.30;1.65;;;;;;;-146.27;81.54;44412.16;5070483;28;20119;-75
2024/03/30 04:48:30;;;;;;;2.13;1.50;;;;;;;-146.27;81.61;44457.91;5080838;28;20028;-75
2024/03/30 04:50:56;;;;;;;1.73;1.35;;;;;;;-146.27;81.60;44449.97;5078527;28;20496;-76
2024/03/30 04:53:24;;;;;;;1.95;1.75;;;;;;;-146.27;81.99;44386.28;5084639;28;20035;-75
2024/03/30 04:55:54;;;;;;;1.65;1.48;;;;;;;-146.27;82.22;44402.19;5079776;28;20440;-75
2024/03/30 04:58:21;;;;;;;2.13;1.65;;;;;;;-146.27;83.15;44330.56;5084993;28;20024;-75
2024/03/30 05:00:48;;;;;;;2.85;1.67;;;;;;;-146.27;82.58;44350.47;5089938;28;20097;-75
2024/03/30 05:03:13;;;;;;;2.38;1.80;;;;;;;-146.27;83.61;44282.81;5081871;28;20058;-75
2024/03/30 05:05:41;;;;;;;3.15;2.40;;;;;;;-146.27;83.31;44286.78;5079803;28;20077;-75
2024/03/30 05:08:07;;;;;;;2.13;1.58;;;;;;;-146.27;82.89;44286.78;5080948;28;20545;-75
2024/03/30 05:10:32;;;;;;;1.73;1.55;;;;;;;-146.27;82.88;44286.78;5078105;28;20036;-75
2024/03/30 05:12:58;;;;;;;4.10;2.08;;;;;;;-146.27;83.33;44282.81;5078076;28;20028;-74
2024/03/30 05:15:23;;;;;;;3.90;2.50;;;;;;;-146.27;83.84;44260.94;5067540;28;20058;-74
2024/03/30 05:17:49;;;;;;;3.72;2.15;;;;;;;-146.27;83.80;44258.94;5077797;28;20024;-74
2024/03/30 05:22:58;;;;;;;;;;;;;;;-146.27;83.83;44193.28;5088831;28;20066;-74
2024/03/30 05:25:23;;;;;;;4.43;2.35;;;;;;;-146.27;83.99;44207.22;5077424;28;19912;-74
2024/03/30 05:27:49;;;;;;;2.75;2.05;;;;;;;-146.27;84.20;44189.31;5087294;28;20105;-74
2024/03/30 05:30:14;;;;;;;7.88;2.38;;;;;;;-146.27;84.80;44205.22;5092020;28;20036;-74
2024/03/30 05:32:40;;;;;;;5.00;2.35;;;;;;;-146.27;85.07;44157.47;5097338;28;20364;-74
2024/03/30 05:35:06;;;;;;;6.30;2.60;;;;;;;-146.27;85.30;44163.44;5093027;28;20028;-74
2024/03/30 05:37:31;;;;;;;3.83;2.40;;;;;;;-146.27;85.48;44123.66;5097648;28;20020;-75
2024/03/30 05:39:57;;;;;;;3.88;2.53;;;;;;;-146.27;85.48;44103.75;5091487;28;20028;-74
2024/03/30 05:42:22;;;;;;;6.57;2.45;;;;;;;-146.27;85.95;44058.00;5089739;28;20030;-75
2024/03/30 05:44:48;;;;;;;3.30;2.60;;;;;;;-146.27;85.81;44056.00;5091353;28;20027;-75
2024/03/30 05:47:13;;;;;;;3.88;2.90;;;;;;;-146.27;86.09;44058.00;5080818;28;20032;-75
2024/03/30 05:49:39;;;;;;;3.80;2.78;;;;;;;-146.27;85.99;44056.00;5093275;28;20052;-76
2024/03/30 05:52:05;;;;;;;3.42;2.95;;;;;;;-146.27;86.36;44006.25;5088477;28;20028;-75
2024/03/30 05:54:30;;;;;;;4.57;3.10;;;;;;;-146.27;86.48;44028.16;5073695;28;20047;-74
2024/03/30 05:56:56;;;;;;;5.07;3.47;;;;;;;-146.27;86.92;44000.28;5081892;28;20020;-73
2024/03/30 05:59:21;;;;;;;5.30;3.22;;;;;;;-146.27;87.12;43982.38;5089392;28;20116;-73
2024/03/30 06:01:47;;;;;;;3.65;3.22;;;;;;;-146.27;87.68;43950.56;5084763;28;20058;-72
2024/03/30 06:04:13;;;;;;;4.88;3.25;;;;;;;-146.27;87.57;43888.88;5101452;28;20024;-72
2024/03/30 06:06:38;;;;;;;4.45;3.28;;;;;;;-146.27;88.05;43888.88;5097220;28;20105;-73
2024/03/30 06:09:04;;;;;;;4.15;3.28;;;;;;;-146.27;88.79;43847.09;5097959;28;20467;-72
2024/03/30 06:11:29;;;;;;;4.15;3.45;;;;;;;-146.27;88.21;43835.16;5090284;28;20028;-71
2024/03/30 06:13:55;;;;;;;4.72;3.50;;;;;;;-146.27;88.28;43857.06;5093995;28;20030;-72
2024/03/30 06:16:21;;;;;;;3.60;3.28;;;;;;;-146.27;88.51;43793.41;5089309;28;20019;-72
2024/03/30 06:18:46;;;;;;;5.70;3.25;;;;;;;-146.27;88.31;43817.25;5087975;28;20028;-71
2024/03/30 06:21:12;;;;;;;3.65;3.13;;;;;;;-146.27;88.51;43807.31;5100347;28;20030;-71
2024/03/30 06:23:37;;;;;;;4.50;3.53;;;;;;;-146.27;88.31;43805.31;5093536;28;20023;-71
2024/03/30 06:26:02;;;;;;;4.13;3.58;;;;;;;-146.27;88.63;43793.41;5105905;28;20074;-70
2024/03/30 06:28:28;;;;;;;5.97;4.05;;;;;;;-146.27;88.62;43807.31;5096397;28;20050;-71
2024/03/30 06:30:55;;;;;;;6.32;3.85;;;;;;;-146.27;88.93;43811.28;5090909;28;20085;-71
2024/03/30 06:33:20;;;;;;;6.55;3.78;;;;;;;-146.27;88.96;43781.47;5092521;28;20078;-70
2024/03/30 06:35:53;;;;;;;4.38;3.65;;;;;;;-146.27;89.40;43773.50;5080882;28;20480;-72
2024/03/30 06:38:19;;;;;;;4.57;3.40;;;;;;;-146.27;89.38;43737.69;5079522;28;20036;-71
2024/03/30 06:43:44;;;;;;;4.32;3.47;;;;;;;-146.27;89.51;43773.50;5096534;28;20132;-71
2024/03/30 06:46:11;;;;;;;7.07;3.85;;;;;;;-146.27;89.45;43801.34;5085060;28;20047;-71
2024/03/30 06:48:37;;;;;;;5.45;3.75;;;;;;;-146.27;89.65;43779.47;5085002;28;20040;-71
2024/03/30 06:51:04;;;;;;;5.30;3.88;;;;;;;-146.27;89.77;43787.44;5090010;28;20077;-70
2024/03/30 06:53:29;;;;;;;7.53;3.50;;;;;;;-146.27;90.13;43735.69;5091074;28;20024;-71
2024/03/30 06:55:55;;;;;;;5.95;4.35;;;;;;;-146.27;89.91;43727.75;5094387;28;20050;-72
2024/03/30 06:58:21;;;;;;;5.50;3.95;;;;;;;-146.27;90.16;43713.81;5089219;28;20028;-72
2024/03/30 07:00:49;;;;;;;5.82;3.80;;;;;;;-146.27;90.27;43697.91;5092377;28;20557;-73
2024/03/30 07:03:15;;;;;;;4.80;3.78;;;;;;;-146.27;90.07;43687.97;5097286;28;20043;-74
2024/03/30 07:05:41;;;;;;;4.85;3.70;;;;;;;-146.27;90.00;43741.66;5105379;28;20419;-73
2024/03/30 07:08:07;;;;;;;5.20;3.90;;;;;;;-146.27;90.54;43689.94;5091406;28;20026;-74
2024/03/30 07:10:33;;;;;;;8.05;3.85;;;;;;;-146.27;90.21;43672.03;5093466;28;20469;-74
2024/03/30 07:12:59;;;;;;;6.05;3.88;;;;;;;-146.27;90.71;43693.91;5085817;28;20024;-75
2024/03/30 07:15:24;;;;;;;5.60;4.28;;;;;;;-146.27;90.79;43660.09;5091608;28;20020;-77
2024/03/30 07:17:50;;;;;;;6.05;4.78;;;;;;;-146.27;90.54;43666.06;5091646;28;20396;-75
2024/03/30 07:20:15;;;;;;;8.27;4.75;;;;;;;-146.27;90.92;43610.38;5090720;28;20182;-73
2024/03/30 07:22:42;;;;;;;8.60;5.70;;;;;;;-146.27;90.72;43656.13;5090862;28;20028;-75
2024/03/30 07:25:07;;;;;;;7.00;5.30;;;;;;;-146.27;90.90;43614.34;5102707;28;20019;-71
2024/03/30 07:27:33;;;;;;;6.10;4.97;;;;;;;-146.27;90.90;43610.38;5072760;28;20036;-74
2024/03/30 07:29:59;;;;;;;6.55;5.15;;;;;;;-146.27;91.11;43616.34;5090452;28;20406;-75
2024/03/30 07:32:24;;;;;;;8.07;5.38;;;;;;;-146.27;91.04;43606.38;5089697;28;20019;-74
2024/03/30 07:34:50;;;;;;;5.97;4.93;;;;;;;-146.27;91.28;43606.38;5089696;28;20026;-74
2024/03/30 07:37:16;;;;;;;5.07;4.53;;;;;;;-146.27;91.45;43548.69;5087307;28;20028;-74
2024/03/30 07:39:43;;;;;;;5.00;4.32;;;;;;;-146.27;91.42;43550.69;5089358;28;20028;-75
2024/03/30 07:42:09;;;;;;;9.93;4.47;;;;;;;-146.27;91.08;43550.69;5093968;28;20035;-75
2024/03/30 07:44:35;;;;;;;6.95;4.25;;;;;;;-146.27;91.08;43562.63;5090916;28;20103;-75
2024/03/30 07:47:00;;;;;;;6.40;4.40;;;;;;;-146.27;90.90;43510.91;5088586;28;20119;-75
2024/03/30 07:49:26;;;;;;;5.65;4.45;;;;;;;-146.27;91.11;43578.53;5090237;28;20020;-75
2024/03/30 07:51:51;;;;;;;7.15;5.05;;;;;;;-146.27;91.21;43540.75;5088012;28;20019;-75
2024/03/30 07:54:17;;;;;;;6.35;4.97;;;;;;;-146.27;91.26;43546.72;5086795;28;20548;-74
2024/03/30 07:56:54;;;;;;;5.78;4.63;;;;;;;-146.27;91.36;43534.78;5089804;28;20465;-75
2024/03/30 07:59:19;;;;;;;6.78;4.68;;;;;;;-146.27;91.71;43498.97;5091722;28;20062;-75
2024/03/30 08:01:45;;;;;;;6.68;5.13;;;;;;;-146.27;91.16;43556.66;5090516;28;20060;-74
2024/03/30 08:04:10;;;;;;;6.03;4.78;;;;;;;-146.27;91.26;43498.97;5089061;28;20530;-75
2024/03/30 08:06:36;;;;;;;8.13;5.35;;;;;;;-146.27;91.07;43534.78;5085326;28;20536;-75
2024/03/30 08:09:01;;;;;;;9.95;5.68;;;;;;;-146.27;91.39;43544.72;5072759;28;20107;-75
2024/03/30 08:11:26;;;;;;;6.40;5.15;;;;;;;-146.27;91.66;43506.94;5090593;28;20429;-75
2024/03/30 08:13:52;;;;;;;7.47;4.65;;;;;;;-146.27;91.32;43491.00;5095207;28;20027;-73
2024/03/30 08:16:19;;;;;;;7.55;5.95;;;;;;;-146.27;91.07;43510.91;5092377;28;20024;-73
2024/03/30 08:18:46;;;;;;;9.43;5.10;;;;;;;-146.27;91.45;43475.09;5095564;28;20476;-73
2024/03/30 08:21:11;;;;;;;7.45;5.30;;;;;;;-146.27;91.22;43502.94;5075347;28;20032;-73
2024/03/30 08:23:37;;;;;;;9.30;6.22;;;;;;;-146.27;91.10;43514.88;5092612;28;20082;-73
2024/03/30 08:26:02;;;;;;;8.73;6.18;;;;;;;-146.27;91.27;43506.94;5089871;28;20020;-73
2024/03/30 08:28:28;;;;;;;12.15;7.00;;;;;;;-146.27;91.25;43481.06;5091029;28;20422;-73
2024/03/30 08:30:53;;;;;;;13.20;8.95;;;;;;;-146.27;90.99;43496.97;5090139;28;20032;-74
2024/03/30 08:33:18;;;;;;;12.65;8.77;;;;;;;-146.27;91.20;43475.09;5072779;28;20126;-73
2024/03/30 08:35:54;;;;;;;14.90;9.02;;;;;;;-146.27;91.10;43451.22;5078727;28;20027;-72
2024/03/30 08:38:20;;;;;;;13.75;8.45;;;;;;;-146.27;91.00;43498.97;5087346;28;20043;-74
2024/03/30 08:40:48;;;;;;;12.77;8.02;;;;;;;-146.27;91.15;43489.03;5091460;28;20032;-75
2024/03/30 08:43:14;;;;;;;13.68;9.20;;;;;;;-146.27;91.07;43471.13;5081772;28;20392;-74
2024/03/30 08:45:42;;;;;;;13.40;9.43;;;;;;;-146.27;91.12;43477.09;5092167;28;20028;-73
2024/03/30 08:48:12;;;;;;;14.90;9.88;;;;;;;-146.27;91.34;43479.06;5080535;28;20075;-73
2024/03/30 08:50:37;;;;;;;14.20;8.88;;;;;;;-146.27;90.96;43489.03;5089697;28;20024;-73
2024/03/30 08:53:03;;;;;;;14.30;9.07;;;;;;;-146.27;91.07;43514.88;5045363;28;20039;-74
2024/03/30 08:55:31;;;;;;;15.07;9.40;;;;;;;-146.27;91.31;43479.06;5088170;28;20468;-74
2024/03/30 08:57:58;;;;;;;16.08;9.10;;;;;;;-146.27;91.07;43489.03;5091922;28;20023;-73
2024/03/30 09:00:23;;;;;;;15.70;9.77;;;;;;;-146.27;91.08;43518.88;5088591;28;20028;-75
2024/03/30 09:02:51;;;;;;;12.52;8.60;;;;;;;-146.27;90.91;43508.91;5070215;28;20089;-77
2024/03/30 09:05:17;;;;;;;13.60;8.77;;;;;;;-146.27;91.37;43548.69;5088255;28;20030;-75
2024/03/30 09:07:42;;;;;;;15.05;7.93;;;;;;;-146.27;91.29;43534.78;5093080;28;20028;-76
2024/03/30 09:10:08;;;;;;;14.88;8.80;;;;;;;-146.27;91.12;43493.00;5070967;28;20390;-77
2024/03/30 09:12:33;;;;;;;15.20;8.60;;;;;;;-146.27;91.29;43550.69;5060922;28;20047;-76
2024/03/30 09:14:58;;;;;;;13.00;7.93;;;;;;;-146.27;91.48;43542.72;5094366;28;20020;-77
2024/03/30 09:17:24;;;;;;;16.75;9.45;;;;;;;-146.27;91.29;43508.91;5089684;28;20020;-76
2024/03/30 09:19:49;;;;;;;19.40;10.18;;;;;;;-146.27;91.27;43495.00;5090248;28;20107;-76
2024/03/30 09:22:14;;;;;;;17.90;10.32;;;;;;;-146.27;91.18;43487.03;5090476;28;20113;-76
2024/03/30 09:24:40;;;;;;;24.73;11.70;;;;;;;-146.27;91.61;43506.94;5092126;28;20044;-77
2024/03/30 09:27:05;;;;;;;26.30;11.65;;;;;;;-146.27;91.39;43471.13;5089948;28;20098;-76
2024/03/30 09:29:31;;;;;;;22.20;13.75;;;;;;;-146.27;91.39;43475.09;5090629;28;20028;-77
2024/03/30 09:31:56;;;;;;;26.17;15.05;;;;;;;-146.27;91.50;43487.03;5072268;28;20020;-76
2024/03/30 09:34:22;;;;;;;25.85;15.30;;;;;;;-146.27;91.47;43483.06;5090556;28;20173;-77
2024/03/30 09:36:47;;;;;;;26.27;14.40;;;;;;;-146.27;91.30;43455.22;5090566;28;20031;-76
2024/03/30 09:39:12;;;;;;;29.55;16.65;;;;;;;-146.27;91.29;43463.16;5073779;28;20107;-75
2024/03/30 09:41:55;;;;;;;26.50;16.05;;;;;;;-146.27;91.10;43473.09;5081437;28;20108;-76
2024/03/30 09:44:21;;;;;;;22.00;15.63;;;;;;;-146.27;91.23;43467.13;5082676;28;20041;-77
2024/03/30 09:46:51;;;;;;;25.15;15.27;;;;;;;-146.27;91.22;43439.28;5083314;28;20024;-77
2024/03/30 09:49:17;;;;;;;22.45;14.60;;;;;;;-146.27;91.26;43417.41;5101974;28;20034;-77
2024/03/30 09:51:43;;;;;;;21.60;14.75;;;;;;;-146.27;91.27;43411.44;5079336;28;20500;-77
2024/03/30 09:54:11;;;;;;;21.58;14.25;;;;;;;-146.27;91.45;43465.16;5090790;28;20022;-75
2024/03/30 09:56:41;;;;;;;16.38;12.27;;;;;;;-146.27;91.45;43487.03;5089592;28;20020;-75
2024/03/30 09:59:10;;;;;;;14.88;11.30;;;;;;;-146.27;91.23;43457.19;5084449;28;20024;-75
2024/03/30 10:01:36;;;;;;;16.23;10.80;;;;;;;-146.27;91.18;43445.25;5086309;28;20039;-76
2024/03/30 10:04:01;;;;;;;16.38;10.55;;;;;;;-146.27;91.30;43471.13;5079137;28;20028;-77
2024/03/30 10:06:30;;;;;;;15.95;10.45;;;;;;;-146.27;91.42;43447.25;5057657;28;20029;-77
2024/03/30 10:09:02;;;;;;;14.98;10.63;;;;;;;-146.27;91.30;43447.25;5073603;28;20028;-75
2024/03/30 10:11:31;;;;;;;12.85;8.10;;;;;;;-146.27;91.47;43445.25;5093159;28;20024;-75
2024/03/30 10:14:26;;;;;;;11.05;7.60;;;;;;;-146.27;91.47;43455.22;5088537;28;20542;-73
2024/03/30 10:16:53;;;;;;;11.57;6.60;;;;;;;-146.27;91.81;43435.31;5035595;28;20040;-75
2024/03/30 10:19:19;;;;;;;6.30;4.55;;;;;;;-146.27;91.61;43429.34;5091768;28;20141;-75
2024/03/30 10:21:45;;;;;;;4.30;3.30;;;;;;;-146.27;91.37;43495.00;5098236;28;20028;-74
2024/03/30 10:24:12;;;;;;;3.72;2.67;;;;;;;-146.27;91.27;43429.34;5067371;28;20039;-75
2024/03/30 10:26:41;;;;;;;4.50;2.80;;;;;;;-146.27;91.63;43433.31;5072570;28;21014;-75
2024/03/30 10:29:07;;;;;;;4.45;2.78;;;;;;;-146.27;91.31;43467.13;5090054;28;20031;-75
2024/03/30 10:31:32;;;;;;;6.40;3.13;;;;;;;-146.27;91.31;43477.09;5093285;28;20063;-75
2024/03/30 10:33:59;;;;;;;4.05;2.78;;;;;;;-146.27;91.50;43459.19;5092942;28;20020;-72
2024/03/30 10:36:26;;;;;;;3.63;2.63;;;;;;;-146.27;91.49;43483.06;5093748;28;20056;-73
2024/03/30 10:38:52;;;;;;;4.35;2.97;;;;;;;-146.27;91.61;43483.06;5091922;28;20032;-74
2024/03/30 10:41:18;;;;;;;5.05;3.00;;;;;;;-146.27;91.55;43498.97;5090674;28;20140;-73
2024/03/30 10:43:44;;;;;;;4.38;2.65;;;;;;;-146.27;91.42;43427.34;5092871;28;20540;-73
2024/03/30 10:46:09;;;;;;;4.10;2.72;;;;;;;-146.27;91.42;43435.31;5092652;28;20024;-71
2024/03/30 10:48:34;;;;;;;5.95;2.88;;;;;;;-146.27;91.51;43443.28;5092301;28;20056;-73
2024/03/30 10:51:00;;;;;;;4.93;2.65;;;;;;;-146.27;90.88;43491.00;5090729;28;20119;-72
2024/03/30 10:53:25;;;;;;;6.28;1.92;;;;;;;-146.27;90.79;43510.91;5072445;28;20024;-73
2024/03/30 10:55:51;;;;;;;3.15;1.67;;;;;;;-146.27;90.41;43489.03;5072307;28;20035;-73
2024/03/30 10:58:17;;;;;;;2.58;2.08;;;;;;;-146.27;90.74;43479.06;5072235;28;20594;-73
2024/03/30 11:00:43;;;;;;;4.70;2.08;;;;;;;-146.27;90.77;43580.53;5087109;28;20115;-73
2024/03/30 11:03:11;;;;;;;5.50;1.80;;;;;;;-146.27;90.64;43542.72;5092572;28;20051;-72
2024/03/30 11:05:38;;;;;;;2.00;1.50;;;;;;;-146.27;90.71;43568.59;5094852;28;20077;-72
2024/03/30 11:08:05;;;;;;;3.78;1.60;;;;;;;-146.27;90.71;43558.66;5092276;28;20020;-73
2024/03/30 11:10:30;;;;;;;3.20;1.95;;;;;;;-146.27;90.43;43546.72;5094708;28;20476;-72
2024/03/30 11:12:56;;;;;;;5.63;2.60;;;;;;;-146.27;90.61;43514.88;5092960;28;20102;-76
2024/03/30 11:15:24;;;;;;;3.95;1.90;;;;;;;-146.27;90.57;43542.72;5077477;28;20036;-75